sensor_id;sensor_type;location;lat;lon;timestamp;P1;durP1;ratioP1;P2;durP2;ratioP2
74328;SDS011;62745;51.060;13.786;2023-03-23T00:01:25;6.20;;;1.65;;
74328;SDS011;62745;51.060;13.786;2023-03-23T00:03:54;5.25;;;1.55;;
74328;SDS011;62745;51.060;13.786;2023-03-23T00:06:24;4.10;;;1.55;;
74328;SDS011;62745;51.060;13.786;2023-03-23T00:08:51;3.50;;;1.50;;
74328;SDS011;62745;51.060;13.786;2023-03-23T00:11:22;4.10;;;1.60;;
74328;SDS011;62745;51.060;13.786;2023-03-23T00:13:51;3.58;;;1.30;;
74328;SDS011;62745;51.060;13.786;2023-03-23T00:16:21;5.05;;;1.30;;
74328;SDS011;62745;51.060;13.786;2023-03-23T00:18:54;3.22;;;1.23;;
74328;SDS011;62745;51.060;13.786;2023-03-23T00:21:21;3.03;;;1.30;;
74328;SDS011;62745;51.060;13.786;2023-03-23T00:24:03;3.97;;;1.70;;
74328;SDS011;62745;51.060;13.786;2023-03-23T00:26:36;3.08;;;1.20;;
74328;SDS011;62745;51.060;13.786;2023-03-23T00:29:06;2.88;;;1.15;;
74328;SDS011;62745;51.060;13.786;2023-03-23T00:31:32;5.30;;;1.40;;
74328;SDS011;62745;51.060;13.786;2023-03-23T00:34:00;3.00;;;1.10;;
74328;SDS011;62745;51.060;13.786;2023-03-23T00:36:26;3.30;;;1.00;;
74328;SDS011;62745;51.060;13.786;2023-03-23T00:38:53;3.47;;;1.35;;
74328;SDS011;62745;51.060;13.786;2023-03-23T00:41:19;2.85;;;1.23;;
74328;SDS011;62745;51.060;13.786;2023-03-23T00:43:44;3.15;;;1.67;;
74328;SDS011;62745;51.060;13.786;2023-03-23T00:46:09;4.47;;;1.10;;
74328;SDS011;62745;51.060;13.786;2023-03-23T00:48:36;2.50;;;1.00;;
74328;SDS011;62745;51.060;13.786;2023-03-23T00:51:09;3.03;;;1.30;;
74328;SDS011;62745;51.060;13.786;2023-03-23T00:53:35;2.58;;;1.13;;
74328;SDS011;62745;51.060;13.786;2023-03-23T00:56:01;4.65;;;1.42;;
74328;SDS011;62745;51.060;13.786;2023-03-23T00:58:26;2.93;;;1.17;;
74328;SDS011;62745;51.060;13.786;2023-03-23T01:00:51;6.23;;;1.17;;
74328;SDS011;62745;51.060;13.786;2023-03-23T01:03:17;3.70;;;1.10;;
74328;SDS011;62745;51.060;13.786;2023-03-23T01:05:43;3.58;;;1.30;;
74328;SDS011;62745;51.060;13.786;2023-03-23T01:08:11;5.47;;;1.40;;
74328;SDS011;62745;51.060;13.786;2023-03-23T01:10:37;3.35;;;1.20;;
74328;SDS011;62745;51.060;13.786;2023-03-23T01:13:03;2.47;;;1.10;;
74328;SDS011;62745;51.060;13.786;2023-03-23T01:15:30;3.85;;;1.13;;
74328;SDS011;62745;51.060;13.786;2023-03-23T01:17:55;3.72;;;1.33;;
74328;SDS011;62745;51.060;13.786;2023-03-23T01:20:21;3.10;;;1.10;;
74328;SDS011;62745;51.060;13.786;2023-03-23T01:22:46;2.72;;;1.10;;
74328;SDS011;62745;51.060;13.786;2023-03-23T01:25:12;3.10;;;1.03;;
74328;SDS011;62745;51.060;13.786;2023-03-23T01:27:38;3.10;;;1.00;;
74328;SDS011;62745;51.060;13.786;2023-03-23T01:30:05;2.03;;;0.95;;
74328;SDS011;62745;51.060;13.786;2023-03-23T01:32:31;2.38;;;1.10;;
74328;SDS011;62745;51.060;13.786;2023-03-23T01:34:57;3.13;;;1.05;;
74328;SDS011;62745;51.060;13.786;2023-03-23T01:37:22;2.22;;;1.00;;
74328;SDS011;62745;51.060;13.786;2023-03-23T01:39:55;2.88;;;1.00;;
74328;SDS011;62745;51.060;13.786;2023-03-23T01:42:22;3.25;;;1.00;;
74328;SDS011;62745;51.060;13.786;2023-03-23T01:47:17;4.43;;;1.00;;
74328;SDS011;62745;51.060;13.786;2023-03-23T01:49:48;2.05;;;0.98;;
74328;SDS011;62745;51.060;13.786;2023-03-23T01:52:18;2.13;;;0.90;;
74328;SDS011;62745;51.060;13.786;2023-03-23T01:54:50;3.30;;;0.93;;
74328;SDS011;62745;51.060;13.786;2023-03-23T01:57:18;2.20;;;0.90;;
74328;SDS011;62745;51.060;13.786;2023-03-23T01:59:47;2.88;;;1.00;;
74328;SDS011;62745;51.060;13.786;2023-03-23T02:02:16;2.22;;;0.90;;
74328;SDS011;62745;51.060;13.786;2023-03-23T02:04:45;2.75;;;1.17;;
74328;SDS011;62745;51.060;13.786;2023-03-23T02:07:11;2.03;;;0.85;;
74328;SDS011;62745;51.060;13.786;2023-03-23T02:09:38;2.30;;;1.00;;
74328;SDS011;62745;51.060;13.786;2023-03-23T02:12:04;2.83;;;0.93;;
74328;SDS011;62745;51.060;13.786;2023-03-23T02:14:29;2.67;;;0.80;;
74328;SDS011;62745;51.060;13.786;2023-03-23T02:17:01;2.13;;;0.90;;
74328;SDS011;62745;51.060;13.786;2023-03-23T02:19:55;2.40;;;1.10;;
74328;SDS011;62745;51.060;13.786;2023-03-23T02:25:20;1.95;;;0.90;;
74328;SDS011;62745;51.060;13.786;2023-03-23T02:28:15;1.90;;;0.70;;
74328;SDS011;62745;51.060;13.786;2023-03-23T02:33:56;2.17;;;0.80;;
74328;SDS011;62745;51.060;13.786;2023-03-23T02:36:30;2.55;;;0.95;;
74328;SDS011;62745;51.060;13.786;2023-03-23T02:39:05;2.00;;;0.77;;
74328;SDS011;62745;51.060;13.786;2023-03-23T02:41:39;2.42;;;1.00;;
74328;SDS011;62745;51.060;13.786;2023-03-23T02:44:10;2.10;;;0.80;;
74328;SDS011;62745;51.060;13.786;2023-03-23T02:46:37;2.15;;;0.88;;
74328;SDS011;62745;51.060;13.786;2023-03-23T02:49:04;2.60;;;0.80;;
74328;SDS011;62745;51.060;13.786;2023-03-23T02:51:33;1.65;;;0.80;;
74328;SDS011;62745;51.060;13.786;2023-03-23T02:53:59;2.72;;;0.85;;
74328;SDS011;62745;51.060;13.786;2023-03-23T02:56:27;2.38;;;0.73;;
74328;SDS011;62745;51.060;13.786;2023-03-23T02:58:54;1.42;;;0.70;;
74328;SDS011;62745;51.060;13.786;2023-03-23T03:03:53;1.85;;;0.77;;
74328;SDS011;62745;51.060;13.786;2023-03-23T03:06:27;2.55;;;1.00;;
74328;SDS011;62745;51.060;13.786;2023-03-23T03:09:07;1.75;;;0.77;;
74328;SDS011;62745;51.060;13.786;2023-03-23T03:11:39;2.35;;;0.80;;
74328;SDS011;62745;51.060;13.786;2023-03-23T03:17:05;1.48;;;0.73;;
74328;SDS011;62745;51.060;13.786;2023-03-23T03:19:43;1.80;;;0.80;;
74328;SDS011;62745;51.060;13.786;2023-03-23T03:22:13;2.42;;;0.70;;
74328;SDS011;62745;51.060;13.786;2023-03-23T03:24:38;2.45;;;0.82;;
74328;SDS011;62745;51.060;13.786;2023-03-23T03:27:10;2.30;;;0.70;;
74328;SDS011;62745;51.060;13.786;2023-03-23T03:29:39;1.90;;;0.70;;
74328;SDS011;62745;51.060;13.786;2023-03-23T03:32:09;3.38;;;0.75;;
74328;SDS011;62745;51.060;13.786;2023-03-23T03:34:37;2.10;;;0.85;;
74328;SDS011;62745;51.060;13.786;2023-03-23T03:37:03;5.40;;;0.80;;
74328;SDS011;62745;51.060;13.786;2023-03-23T03:39:31;3.47;;;0.80;;
74328;SDS011;62745;51.060;13.786;2023-03-23T03:42:00;1.60;;;0.73;;
74328;SDS011;62745;51.060;13.786;2023-03-23T03:44:25;3.27;;;0.90;;
74328;SDS011;62745;51.060;13.786;2023-03-23T03:46:51;2.97;;;1.00;;
74328;SDS011;62745;51.060;13.786;2023-03-23T03:49:16;5.13;;;1.00;;
74328;SDS011;62745;51.060;13.786;2023-03-23T03:51:41;3.07;;;0.90;;
74328;SDS011;62745;51.060;13.786;2023-03-23T03:54:07;3.15;;;1.00;;
74328;SDS011;62745;51.060;13.786;2023-03-23T03:56:32;2.33;;;1.00;;
74328;SDS011;62745;51.060;13.786;2023-03-23T03:59:02;2.70;;;1.10;;
74328;SDS011;62745;51.060;13.786;2023-03-23T04:01:28;3.88;;;1.02;;
74328;SDS011;62745;51.060;13.786;2023-03-23T04:03:54;2.88;;;1.05;;
74328;SDS011;62745;51.060;13.786;2023-03-23T04:06:19;2.63;;;1.10;;
74328;SDS011;62745;51.060;13.786;2023-03-23T04:08:45;4.05;;;1.20;;
74328;SDS011;62745;51.060;13.786;2023-03-23T04:11:11;2.75;;;0.98;;
74328;SDS011;62745;51.060;13.786;2023-03-23T04:13:37;3.97;;;1.10;;
74328;SDS011;62745;51.060;13.786;2023-03-23T04:16:03;2.95;;;0.90;;
74328;SDS011;62745;51.060;13.786;2023-03-23T04:18:29;3.95;;;1.00;;
74328;SDS011;62745;51.060;13.786;2023-03-23T04:20:57;2.88;;;1.10;;
74328;SDS011;62745;51.060;13.786;2023-03-23T04:23:24;3.15;;;1.00;;
74328;SDS011;62745;51.060;13.786;2023-03-23T04:25:50;3.45;;;1.30;;
74328;SDS011;62745;51.060;13.786;2023-03-23T04:28:18;3.80;;;1.63;;
74328;SDS011;62745;51.060;13.786;2023-03-23T04:30:48;3.08;;;1.20;;
74328;SDS011;62745;51.060;13.786;2023-03-23T04:33:14;4.80;;;1.40;;
74328;SDS011;62745;51.060;13.786;2023-03-23T04:35:40;3.17;;;1.30;;
74328;SDS011;62745;51.060;13.786;2023-03-23T04:38:06;3.55;;;1.25;;
74328;SDS011;62745;51.060;13.786;2023-03-23T04:40:34;3.63;;;1.58;;
74328;SDS011;62745;51.060;13.786;2023-03-23T04:43:01;2.42;;;1.08;;
74328;SDS011;62745;51.060;13.786;2023-03-23T04:45:30;3.25;;;1.13;;
74328;SDS011;62745;51.060;13.786;2023-03-23T04:47:56;4.32;;;1.30;;
74328;SDS011;62745;51.060;13.786;2023-03-23T04:50:25;2.65;;;1.08;;
74328;SDS011;62745;51.060;13.786;2023-03-23T04:53:01;3.33;;;1.20;;
74328;SDS011;62745;51.060;13.786;2023-03-23T04:55:32;3.40;;;1.45;;
74328;SDS011;62745;51.060;13.786;2023-03-23T04:58:03;3.42;;;1.13;;
74328;SDS011;62745;51.060;13.786;2023-03-23T05:00:28;3.67;;;1.20;;
74328;SDS011;62745;51.060;13.786;2023-03-23T05:02:54;4.15;;;1.42;;
74328;SDS011;62745;51.060;13.786;2023-03-23T05:05:20;7.18;;;1.45;;
74328;SDS011;62745;51.060;13.786;2023-03-23T05:07:47;3.40;;;1.30;;
74328;SDS011;62745;51.060;13.786;2023-03-23T05:10:13;5.05;;;1.80;;
74328;SDS011;62745;51.060;13.786;2023-03-23T05:12:40;6.10;;;1.63;;
74328;SDS011;62745;51.060;13.786;2023-03-23T05:15:06;3.33;;;1.40;;
74328;SDS011;62745;51.060;13.786;2023-03-23T05:17:33;3.05;;;1.40;;
74328;SDS011;62745;51.060;13.786;2023-03-23T05:19:59;3.58;;;1.40;;
74328;SDS011;62745;51.060;13.786;2023-03-23T05:22:27;4.47;;;1.40;;
74328;SDS011;62745;51.060;13.786;2023-03-23T05:24:53;4.32;;;1.60;;
74328;SDS011;62745;51.060;13.786;2023-03-23T05:27:18;3.33;;;1.40;;
74328;SDS011;62745;51.060;13.786;2023-03-23T05:29:44;4.82;;;1.42;;
74328;SDS011;62745;51.060;13.786;2023-03-23T05:32:13;4.25;;;1.30;;
74328;SDS011;62745;51.060;13.786;2023-03-23T05:34:38;4.72;;;1.30;;
74328;SDS011;62745;51.060;13.786;2023-03-23T05:37:04;4.10;;;1.50;;
74328;SDS011;62745;51.060;13.786;2023-03-23T05:39:30;3.53;;;1.10;;
74328;SDS011;62745;51.060;13.786;2023-03-23T05:41:56;2.78;;;1.13;;
74328;SDS011;62745;51.060;13.786;2023-03-23T05:44:22;4.18;;;1.20;;
74328;SDS011;62745;51.060;13.786;2023-03-23T05:46:47;6.30;;;1.70;;
74328;SDS011;62745;51.060;13.786;2023-03-23T05:49:14;8.70;;;1.55;;
74328;SDS011;62745;51.060;13.786;2023-03-23T05:51:41;3.40;;;1.20;;
74328;SDS011;62745;51.060;13.786;2023-03-23T05:54:06;4.15;;;1.48;;
74328;SDS011;62745;51.060;13.786;2023-03-23T05:56:32;7.07;;;1.70;;
74328;SDS011;62745;51.060;13.786;2023-03-23T05:58:57;6.20;;;1.60;;
74328;SDS011;62745;51.060;13.786;2023-03-23T06:01:23;5.68;;;1.75;;
74328;SDS011;62745;51.060;13.786;2023-03-23T06:03:49;13.90;;;2.28;;
74328;SDS011;62745;51.060;13.786;2023-03-23T06:06:16;9.05;;;2.20;;
74328;SDS011;62745;51.060;13.786;2023-03-23T06:08:42;17.30;;;3.03;;
74328;SDS011;62745;51.060;13.786;2023-03-23T06:11:08;7.05;;;2.13;;
74328;SDS011;62745;51.060;13.786;2023-03-23T06:13:33;6.30;;;1.73;;
74328;SDS011;62745;51.060;13.786;2023-03-23T06:15:58;8.33;;;1.97;;
74328;SDS011;62745;51.060;13.786;2023-03-23T06:18:24;5.20;;;1.50;;
74328;SDS011;62745;51.060;13.786;2023-03-23T06:20:49;9.43;;;1.70;;
74328;SDS011;62745;51.060;13.786;2023-03-23T06:23:15;7.57;;;1.30;;
74328;SDS011;62745;51.060;13.786;2023-03-23T06:25:41;5.18;;;1.80;;
74328;SDS011;62745;51.060;13.786;2023-03-23T06:28:07;4.47;;;1.45;;
74328;SDS011;62745;51.060;13.786;2023-03-23T06:30:34;4.13;;;1.35;;
74328;SDS011;62745;51.060;13.786;2023-03-23T06:33:00;3.20;;;1.20;;
74328;SDS011;62745;51.060;13.786;2023-03-23T06:35:25;3.75;;;1.20;;
74328;SDS011;62745;51.060;13.786;2023-03-23T06:37:51;3.40;;;1.30;;
74328;SDS011;62745;51.060;13.786;2023-03-23T06:40:18;3.72;;;1.40;;
74328;SDS011;62745;51.060;13.786;2023-03-23T06:42:44;5.13;;;1.33;;
74328;SDS011;62745;51.060;13.786;2023-03-23T06:45:09;3.93;;;1.30;;
74328;SDS011;62745;51.060;13.786;2023-03-23T06:47:35;2.90;;;1.10;;
74328;SDS011;62745;51.060;13.786;2023-03-23T06:50:00;3.40;;;1.17;;
74328;SDS011;62745;51.060;13.786;2023-03-23T06:52:26;3.70;;;1.40;;
74328;SDS011;62745;51.060;13.786;2023-03-23T06:54:51;3.65;;;1.20;;
74328;SDS011;62745;51.060;13.786;2023-03-23T06:57:17;4.90;;;1.15;;
74328;SDS011;62745;51.060;13.786;2023-03-23T06:59:43;2.38;;;0.80;;
74328;SDS011;62745;51.060;13.786;2023-03-23T07:02:10;2.80;;;1.08;;
74328;SDS011;62745;51.060;13.786;2023-03-23T07:04:36;2.60;;;1.00;;
74328;SDS011;62745;51.060;13.786;2023-03-23T07:07:02;4.47;;;1.00;;
74328;SDS011;62745;51.060;13.786;2023-03-23T07:09:28;4.22;;;1.00;;
74328;SDS011;62745;51.060;13.786;2023-03-23T07:11:53;3.13;;;1.10;;
74328;SDS011;62745;51.060;13.786;2023-03-23T07:14:18;4.27;;;1.00;;
74328;SDS011;62745;51.060;13.786;2023-03-23T07:16:44;3.17;;;0.90;;
74328;SDS011;62745;51.060;13.786;2023-03-23T07:19:10;3.78;;;0.90;;
74328;SDS011;62745;51.060;13.786;2023-03-23T07:21:36;4.20;;;1.00;;
74328;SDS011;62745;51.060;13.786;2023-03-23T07:24:01;2.53;;;1.00;;
74328;SDS011;62745;51.060;13.786;2023-03-23T07:26:27;3.83;;;1.13;;
74328;SDS011;62745;51.060;13.786;2023-03-23T07:28:52;2.20;;;0.80;;
74328;SDS011;62745;51.060;13.786;2023-03-23T07:31:17;2.93;;;1.10;;
74328;SDS011;62745;51.060;13.786;2023-03-23T07:33:43;3.00;;;0.80;;
74328;SDS011;62745;51.060;13.786;2023-03-23T07:36:08;2.83;;;1.00;;
74328;SDS011;62745;51.060;13.786;2023-03-23T07:38:34;3.58;;;1.05;;
74328;SDS011;62745;51.060;13.786;2023-03-23T07:40:59;2.00;;;1.00;;
74328;SDS011;62745;51.060;13.786;2023-03-23T07:43:25;2.27;;;0.90;;
74328;SDS011;62745;51.060;13.786;2023-03-23T07:45:51;2.03;;;1.00;;
74328;SDS011;62745;51.060;13.786;2023-03-23T07:48:16;2.95;;;0.90;;
74328;SDS011;62745;51.060;13.786;2023-03-23T07:50:41;2.10;;;1.03;;
74328;SDS011;62745;51.060;13.786;2023-03-23T07:53:07;2.85;;;0.80;;
74328;SDS011;62745;51.060;13.786;2023-03-23T07:55:32;3.63;;;1.00;;
74328;SDS011;62745;51.060;13.786;2023-03-23T07:57:58;3.53;;;1.00;;
74328;SDS011;62745;51.060;13.786;2023-03-23T08:00:23;2.05;;;0.90;;
74328;SDS011;62745;51.060;13.786;2023-03-23T08:02:53;2.87;;;1.10;;
74328;SDS011;62745;51.060;13.786;2023-03-23T08:05:20;3.88;;;1.13;;
74328;SDS011;62745;51.060;13.786;2023-03-23T08:07:47;2.72;;;1.00;;
74328;SDS011;62745;51.060;13.786;2023-03-23T08:10:13;2.10;;;0.90;;
74328;SDS011;62745;51.060;13.786;2023-03-23T08:12:39;2.58;;;0.82;;
74328;SDS011;62745;51.060;13.786;2023-03-23T08:15:07;2.70;;;0.80;;
74328;SDS011;62745;51.060;13.786;2023-03-23T08:17:34;3.83;;;1.10;;
74328;SDS011;62745;51.060;13.786;2023-03-23T08:20:00;3.58;;;1.42;;
74328;SDS011;62745;51.060;13.786;2023-03-23T08:22:26;2.85;;;1.00;;
74328;SDS011;62745;51.060;13.786;2023-03-23T08:24:53;4.28;;;1.00;;
74328;SDS011;62745;51.060;13.786;2023-03-23T08:27:19;3.08;;;1.00;;
74328;SDS011;62745;51.060;13.786;2023-03-23T08:29:45;3.10;;;0.90;;
74328;SDS011;62745;51.060;13.786;2023-03-23T08:32:11;2.80;;;0.93;;
74328;SDS011;62745;51.060;13.786;2023-03-23T08:34:36;2.83;;;1.00;;
74328;SDS011;62745;51.060;13.786;2023-03-23T08:37:02;3.15;;;1.10;;
74328;SDS011;62745;51.060;13.786;2023-03-23T08:39:27;2.03;;;0.88;;
74328;SDS011;62745;51.060;13.786;2023-03-23T08:41:55;2.55;;;1.10;;
74328;SDS011;62745;51.060;13.786;2023-03-23T08:44:20;2.43;;;0.90;;
74328;SDS011;62745;51.060;13.786;2023-03-23T08:46:45;3.13;;;1.00;;
74328;SDS011;62745;51.060;13.786;2023-03-23T08:49:10;2.03;;;0.80;;
74328;SDS011;62745;51.060;13.786;2023-03-23T08:51:36;2.87;;;1.07;;
74328;SDS011;62745;51.060;13.786;2023-03-23T08:54:02;3.63;;;1.00;;
74328;SDS011;62745;51.060;13.786;2023-03-23T08:56:27;3.30;;;1.33;;
74328;SDS011;62745;51.060;13.786;2023-03-23T08:58:53;3.67;;;1.10;;
74328;SDS011;62745;51.060;13.786;2023-03-23T09:01:18;2.70;;;0.90;;
74328;SDS011;62745;51.060;13.786;2023-03-23T09:03:44;3.97;;;1.20;;
74328;SDS011;62745;51.060;13.786;2023-03-23T09:06:10;2.97;;;1.15;;
74328;SDS011;62745;51.060;13.786;2023-03-23T09:08:37;3.35;;;1.15;;
74328;SDS011;62745;51.060;13.786;2023-03-23T09:11:05;3.60;;;1.00;;
74328;SDS011;62745;51.060;13.786;2023-03-23T09:13:32;2.63;;;1.05;;
74328;SDS011;62745;51.060;13.786;2023-03-23T09:15:58;2.40;;;1.00;;
74328;SDS011;62745;51.060;13.786;2023-03-23T09:18:24;2.67;;;1.20;;
74328;SDS011;62745;51.060;13.786;2023-03-23T09:20:50;2.20;;;0.93;;
74328;SDS011;62745;51.060;13.786;2023-03-23T09:23:16;3.33;;;1.20;;
74328;SDS011;62745;51.060;13.786;2023-03-23T09:25:42;4.03;;;1.23;;
74328;SDS011;62745;51.060;13.786;2023-03-23T09:28:08;2.88;;;1.10;;
74328;SDS011;62745;51.060;13.786;2023-03-23T09:30:34;4.40;;;1.13;;
74328;SDS011;62745;51.060;13.786;2023-03-23T09:33:01;2.47;;;1.00;;
74328;SDS011;62745;51.060;13.786;2023-03-23T09:35:28;3.40;;;1.05;;
74328;SDS011;62745;51.060;13.786;2023-03-23T09:37:54;3.83;;;1.20;;
74328;SDS011;62745;51.060;13.786;2023-03-23T09:40:22;3.67;;;1.17;;
74328;SDS011;62745;51.060;13.786;2023-03-23T09:43:05;2.60;;;1.02;;
74328;SDS011;62745;51.060;13.786;2023-03-23T09:45:45;3.40;;;1.15;;
74328;SDS011;62745;51.060;13.786;2023-03-23T09:51:00;2.92;;;1.20;;
74328;SDS011;62745;51.060;13.786;2023-03-23T09:53:31;4.82;;;1.50;;
74328;SDS011;62745;51.060;13.786;2023-03-23T09:56:02;2.70;;;1.00;;
74328;SDS011;62745;51.060;13.786;2023-03-23T09:58:39;3.13;;;1.20;;
74328;SDS011;62745;51.060;13.786;2023-03-23T10:01:16;2.95;;;1.23;;
74328;SDS011;62745;51.060;13.786;2023-03-23T10:03:46;6.18;;;1.23;;
74328;SDS011;62745;51.060;13.786;2023-03-23T10:06:13;2.40;;;1.10;;
74328;SDS011;62745;51.060;13.786;2023-03-23T10:08:47;3.20;;;1.15;;
74328;SDS011;62745;51.060;13.786;2023-03-23T10:11:30;3.50;;;1.17;;
74328;SDS011;62745;51.060;13.786;2023-03-23T10:17:44;4.32;;;1.20;;
74328;SDS011;62745;51.060;13.786;2023-03-23T10:22:42;4.20;;;1.10;;
74328;SDS011;62745;51.060;13.786;2023-03-23T10:25:15;4.63;;;1.00;;
74328;SDS011;62745;51.060;13.786;2023-03-23T10:35:50;4.45;;;1.00;;
74328;SDS011;62745;51.060;13.786;2023-03-23T10:38:38;5.88;;;1.30;;
74328;SDS011;62745;51.060;13.786;2023-03-23T10:41:10;3.95;;;1.10;;
74328;SDS011;62745;51.060;13.786;2023-03-23T10:43:38;3.78;;;1.02;;
74328;SDS011;62745;51.060;13.786;2023-03-23T10:49:12;3.10;;;1.10;;
74328;SDS011;62745;51.060;13.786;2023-03-23T10:51:41;2.80;;;0.93;;
74328;SDS011;62745;51.060;13.786;2023-03-23T10:54:09;2.50;;;0.90;;
74328;SDS011;62745;51.060;13.786;2023-03-23T10:56:42;3.08;;;1.10;;
74328;SDS011;62745;51.060;13.786;2023-03-23T10:59:26;3.00;;;1.00;;
74328;SDS011;62745;51.060;13.786;2023-03-23T11:01:55;2.55;;;1.00;;
74328;SDS011;62745;51.060;13.786;2023-03-23T11:04:23;3.85;;;0.90;;
74328;SDS011;62745;51.060;13.786;2023-03-23T11:06:50;2.40;;;0.90;;
74328;SDS011;62745;51.060;13.786;2023-03-23T11:09:21;3.33;;;1.20;;
74328;SDS011;62745;51.060;13.786;2023-03-23T11:11:58;2.80;;;1.20;;
74328;SDS011;62745;51.060;13.786;2023-03-23T11:14:31;3.30;;;1.10;;
74328;SDS011;62745;51.060;13.786;2023-03-23T11:24:31;3.05;;;0.90;;
74328;SDS011;62745;51.060;13.786;2023-03-23T11:26:59;3.00;;;1.00;;
74328;SDS011;62745;51.060;13.786;2023-03-23T11:29:26;3.03;;;1.00;;
74328;SDS011;62745;51.060;13.786;2023-03-23T11:34:30;4.00;;;1.30;;
74328;SDS011;62745;51.060;13.786;2023-03-23T11:37:02;2.78;;;0.88;;
74328;SDS011;62745;51.060;13.786;2023-03-23T11:39:31;2.50;;;0.90;;
74328;SDS011;62745;51.060;13.786;2023-03-23T11:42:12;2.78;;;0.90;;
74328;SDS011;62745;51.060;13.786;2023-03-23T11:44:43;3.40;;;0.88;;
74328;SDS011;62745;51.060;13.786;2023-03-23T11:55:51;3.47;;;1.40;;
74328;SDS011;62745;51.060;13.786;2023-03-23T11:58:26;2.47;;;1.08;;
74328;SDS011;62745;51.060;13.786;2023-03-23T12:00:58;3.20;;;1.20;;
74328;SDS011;62745;51.060;13.786;2023-03-23T12:08:59;2.30;;;0.85;;
74328;SDS011;62745;51.060;13.786;2023-03-23T12:11:36;1.90;;;0.88;;
74328;SDS011;62745;51.060;13.786;2023-03-23T12:14:13;3.58;;;0.80;;
74328;SDS011;62745;51.060;13.786;2023-03-23T12:16:52;2.75;;;0.88;;
74328;SDS011;62745;51.060;13.786;2023-03-23T12:22:11;1.85;;;0.88;;
74328;SDS011;62745;51.060;13.786;2023-03-23T12:36:24;2.75;;;0.90;;
74328;SDS011;62745;51.060;13.786;2023-03-23T12:39:30;2.10;;;0.90;;
74328;SDS011;62745;51.060;13.786;2023-03-23T12:42:30;2.15;;;0.90;;
74328;SDS011;62745;51.060;13.786;2023-03-23T12:45:13;3.00;;;0.90;;
74328;SDS011;62745;51.060;13.786;2023-03-23T12:47:57;2.20;;;0.90;;
74328;SDS011;62745;51.060;13.786;2023-03-23T12:53:11;3.25;;;1.15;;
74328;SDS011;62745;51.060;13.786;2023-03-23T12:58:18;4.68;;;1.10;;
74328;SDS011;62745;51.060;13.786;2023-03-23T13:06:27;3.65;;;0.80;;
74328;SDS011;62745;51.060;13.786;2023-03-23T13:08:59;2.90;;;1.58;;
74328;SDS011;62745;51.060;13.786;2023-03-23T13:11:33;2.58;;;1.00;;
74328;SDS011;62745;51.060;13.786;2023-03-23T13:14:12;2.17;;;0.93;;
74328;SDS011;62745;51.060;13.786;2023-03-23T13:24:58;2.03;;;0.85;;
74328;SDS011;62745;51.060;13.786;2023-03-23T13:27:27;2.58;;;1.10;;
74328;SDS011;62745;51.060;13.786;2023-03-23T13:29:54;2.90;;;1.10;;
74328;SDS011;62745;51.060;13.786;2023-03-23T13:32:29;4.82;;;1.00;;
74328;SDS011;62745;51.060;13.786;2023-03-23T13:35:00;1.83;;;0.77;;
74328;SDS011;62745;51.060;13.786;2023-03-23T13:37:28;3.00;;;1.00;;
74328;SDS011;62745;51.060;13.786;2023-03-23T13:39:55;2.20;;;0.70;;
74328;SDS011;62745;51.060;13.786;2023-03-23T13:42:23;2.72;;;1.00;;
74328;SDS011;62745;51.060;13.786;2023-03-23T13:45:20;1.65;;;0.70;;
74328;SDS011;62745;51.060;13.786;2023-03-23T13:50:50;2.10;;;0.85;;
74328;SDS011;62745;51.060;13.786;2023-03-23T13:53:31;2.33;;;1.00;;
74328;SDS011;62745;51.060;13.786;2023-03-23T14:01:55;2.88;;;1.10;;
74328;SDS011;62745;51.060;13.786;2023-03-23T14:04:40;4.07;;;1.10;;
74328;SDS011;62745;51.060;13.786;2023-03-23T14:07:15;2.80;;;0.90;;
74328;SDS011;62745;51.060;13.786;2023-03-23T14:09:43;2.40;;;0.80;;
74328;SDS011;62745;51.060;13.786;2023-03-23T14:12:27;2.80;;;1.00;;
74328;SDS011;62745;51.060;13.786;2023-03-23T14:15:02;2.15;;;0.95;;
74328;SDS011;62745;51.060;13.786;2023-03-23T14:17:30;4.72;;;1.60;;
74328;SDS011;62745;51.060;13.786;2023-03-23T14:19:59;2.47;;;1.00;;
74328;SDS011;62745;51.060;13.786;2023-03-23T14:22:32;3.22;;;1.20;;
74328;SDS011;62745;51.060;13.786;2023-03-23T14:25:01;2.25;;;0.82;;
74328;SDS011;62745;51.060;13.786;2023-03-23T14:27:37;2.53;;;1.27;;
74328;SDS011;62745;51.060;13.786;2023-03-23T14:30:05;4.28;;;0.98;;
74328;SDS011;62745;51.060;13.786;2023-03-23T14:32:32;2.90;;;0.90;;
74328;SDS011;62745;51.060;13.786;2023-03-23T14:34:58;3.83;;;1.00;;
74328;SDS011;62745;51.060;13.786;2023-03-23T14:37:25;2.92;;;0.82;;
74328;SDS011;62745;51.060;13.786;2023-03-23T14:39:52;2.47;;;0.95;;
74328;SDS011;62745;51.060;13.786;2023-03-23T14:42:20;2.45;;;0.85;;
74328;SDS011;62745;51.060;13.786;2023-03-23T14:44:51;2.60;;;0.90;;
74328;SDS011;62745;51.060;13.786;2023-03-23T14:47:24;2.90;;;1.00;;
74328;SDS011;62745;51.060;13.786;2023-03-23T14:50:00;2.08;;;1.00;;
74328;SDS011;62745;51.060;13.786;2023-03-23T14:52:29;1.80;;;0.90;;
74328;SDS011;62745;51.060;13.786;2023-03-23T14:55:18;2.70;;;1.10;;
74328;SDS011;62745;51.060;13.786;2023-03-23T14:57:48;3.03;;;0.98;;
74328;SDS011;62745;51.060;13.786;2023-03-23T15:00:15;4.22;;;1.02;;
74328;SDS011;62745;51.060;13.786;2023-03-23T15:02:44;2.72;;;1.08;;
74328;SDS011;62745;51.060;13.786;2023-03-23T15:05:17;2.42;;;1.00;;
74328;SDS011;62745;51.060;13.786;2023-03-23T15:07:52;2.97;;;1.08;;
74328;SDS011;62745;51.060;13.786;2023-03-23T15:10:21;2.70;;;1.00;;
74328;SDS011;62745;51.060;13.786;2023-03-23T15:12:49;4.57;;;1.02;;
74328;SDS011;62745;51.060;13.786;2023-03-23T15:15:22;4.53;;;1.15;;
74328;SDS011;62745;51.060;13.786;2023-03-23T15:17:53;2.58;;;1.10;;
74328;SDS011;62745;51.060;13.786;2023-03-23T15:22:46;2.67;;;0.90;;
74328;SDS011;62745;51.060;13.786;2023-03-23T15:25:17;2.65;;;1.10;;
74328;SDS011;62745;51.060;13.786;2023-03-23T15:27:44;2.72;;;0.82;;
74328;SDS011;62745;51.060;13.786;2023-03-23T15:32:48;3.55;;;1.25;;
74328;SDS011;62745;51.060;13.786;2023-03-23T15:35:17;3.15;;;0.90;;
74328;SDS011;62745;51.060;13.786;2023-03-23T15:37:49;4.60;;;1.00;;
74328;SDS011;62745;51.060;13.786;2023-03-23T15:40:21;2.45;;;0.88;;
74328;SDS011;62745;51.060;13.786;2023-03-23T15:42:48;2.65;;;0.90;;
74328;SDS011;62745;51.060;13.786;2023-03-23T15:45:27;3.00;;;1.10;;
74328;SDS011;62745;51.060;13.786;2023-03-23T15:47:52;1.85;;;0.77;;
74328;SDS011;62745;51.060;13.786;2023-03-23T15:52:52;2.40;;;1.00;;
74328;SDS011;62745;51.060;13.786;2023-03-23T15:55:23;2.50;;;0.75;;
74328;SDS011;62745;51.060;13.786;2023-03-23T15:57:51;1.88;;;0.80;;
74328;SDS011;62745;51.060;13.786;2023-03-23T16:00:18;2.17;;;0.90;;
74328;SDS011;62745;51.060;13.786;2023-03-23T16:02:46;2.28;;;0.80;;
74328;SDS011;62745;51.060;13.786;2023-03-23T16:05:13;1.80;;;0.70;;
74328;SDS011;62745;51.060;13.786;2023-03-23T16:07:39;1.58;;;0.73;;
74328;SDS011;62745;51.060;13.786;2023-03-23T16:10:05;2.08;;;0.80;;
74328;SDS011;62745;51.060;13.786;2023-03-23T16:12:31;1.55;;;0.75;;
74328;SDS011;62745;51.060;13.786;2023-03-23T16:14:56;1.45;;;0.70;;
74328;SDS011;62745;51.060;13.786;2023-03-23T16:17:22;1.60;;;0.70;;
74328;SDS011;62745;51.060;13.786;2023-03-23T16:19:47;2.05;;;1.00;;
74328;SDS011;62745;51.060;13.786;2023-03-23T16:22:12;3.47;;;0.90;;
74328;SDS011;62745;51.060;13.786;2023-03-23T16:24:38;1.97;;;0.90;;
74328;SDS011;62745;51.060;13.786;2023-03-23T16:27:03;1.77;;;0.70;;
74328;SDS011;62745;51.060;13.786;2023-03-23T16:29:29;1.85;;;0.70;;
74328;SDS011;62745;51.060;13.786;2023-03-23T16:31:54;1.73;;;0.77;;